sensor_id;sensor_type;location;lat;lon;timestamp;pressure;altitude;pressure_sealevel;temperature;humidity
60099;BME280;62818;49.394;8.686;2023-01-31T00:00:56;101365.34;;;4.01;100.00
60099;BME280;62818;49.394;8.686;2023-01-31T00:01:56;101377.06;;;4.08;100.00
60099;BME280;62818;49.394;8.686;2023-01-31T00:02:56;101372.13;;;4.16;100.00
60099;BME280;62818;49.394;8.686;2023-01-31T00:03:59;101376.59;;;4.26;100.00
60099;BME280;62818;49.394;8.686;2023-01-31T00:05:01;101373.69;;;4.18;100.00
60099;BME280;62818;49.394;8.686;2023-01-31T00:07:15;101382.56;;;4.28;100.00
60099;BME280;62818;49.394;8.686;2023-01-31T00:08:15;101372.97;;;4.16;100.00
60099;BME280;62818;49.394;8.686;2023-01-31T00:09:16;101376.06;;;4.21;100.00
60099;BME280;62818;49.394;8.686;2023-01-31T00:10:17;101379.94;;;4.05;100.00
60099;BME280;62818;49.394;8.686;2023-01-31T00:11:20;101393.00;;;4.17;100.00
60099;BME280;62818;49.394;8.686;2023-01-31T00:12:22;101376.13;;;4.09;100.00
60099;BME280;62818;49.394;8.686;2023-01-31T00:13:22;101375.94;;;4.12;100.00
60099;BME280;62818;49.394;8.686;2023-01-31T00:14:23;101380.59;;;4.19;100.00
60099;BME280;62818;49.394;8.686;2023-01-31T00:15:25;101377.84;;;4.21;100.00
60099;BME280;62818;49.394;8.686;2023-01-31T00:16:25;101382.28;;;4.20;100.00
60099;BME280;62818;49.394;8.686;2023-01-31T00:17:27;101377.13;;;4.19;100.00
60099;BME280;62818;49.394;8.686;2023-01-31T00:18:27;101383.88;;;4.10;100.00
60099;BME280;62818;49.394;8.686;2023-01-31T00:19:28;101378.88;;;4.07;100.00
60099;BME280;62818;49.394;8.686;2023-01-31T00:20:28;101377.09;;;3.95;100.00
60099;BME280;62818;49.394;8.686;2023-01-31T00:21:29;101387.28;;;4.00;100.00
60099;BME280;62818;49.394;8.686;2023-01-31T00:22:30;101382.03;;;4.00;100.00
60099;BME280;62818;49.394;8.686;2023-01-31T00:23:31;101384.31;;;4.04;100.00
60099;BME280;62818;49.394;8.686;2023-01-31T00:24:31;101380.00;;;4.03;100.00
60099;BME280;62818;49.394;8.686;2023-01-31T00:25:32;101387.88;;;4.03;100.00
60099;BME280;62818;49.394;8.686;2023-01-31T00:26:33;101384.84;;;3.97;100.00
60099;BME280;62818;49.394;8.686;2023-01-31T00:27:34;101379.31;;;3.89;100.00
60099;BME280;62818;49.394;8.686;2023-01-31T00:28:35;101375.13;;;3.99;100.00
60099;BME280;62818;49.394;8.686;2023-01-31T00:29:35;101389.69;;;3.90;100.00
60099;BME280;62818;49.394;8.686;2023-01-31T00:30:36;101385.09;;;3.94;100.00
60099;BME280;62818;49.394;8.686;2023-01-31T00:31:36;101385.31;;;3.91;100.00
60099;BME280;62818;49.394;8.686;2023-01-31T00:32:37;101378.47;;;4.01;100.00
60099;BME280;62818;49.394;8.686;2023-01-31T00:33:42;101377.63;;;4.00;100.00
60099;BME280;62818;49.394;8.686;2023-01-31T00:34:43;101383.00;;;3.86;100.00
60099;BME280;62818;49.394;8.686;2023-01-31T00:35:44;101385.63;;;3.86;100.00
60099;BME280;62818;49.394;8.686;2023-01-31T00:36:44;101391.28;;;3.93;100.00
60099;BME280;62818;49.394;8.686;2023-01-31T00:37:45;101381.50;;;4.07;100.00
60099;BME280;62818;49.394;8.686;2023-01-31T00:38:50;101385.38;;;4.02;100.00
60099;BME280;62818;49.394;8.686;2023-01-31T00:39:52;101374.84;;;3.78;100.00
60099;BME280;62818;49.394;8.686;2023-01-31T00:40:53;101380.09;;;3.78;100.00
60099;BME280;62818;49.394;8.686;2023-01-31T00:41:54;101379.22;;;3.90;100.00
60099;BME280;62818;49.394;8.686;2023-01-31T00:42:54;101381.94;;;3.89;100.00
60099;BME280;62818;49.394;8.686;2023-01-31T00:43:55;101374.78;;;4.03;100.00
60099;BME280;62818;49.394;8.686;2023-01-31T00:44:56;101376.38;;;3.93;100.00
60099;BME280;62818;49.394;8.686;2023-01-31T00:45:57;101384.28;;;3.68;100.00
60099;BME280;62818;49.394;8.686;2023-01-31T00:46:58;101372.63;;;3.85;100.00
60099;BME280;62818;49.394;8.686;2023-01-31T00:47:59;101382.34;;;3.95;100.00
60099;BME280;62818;49.394;8.686;2023-01-31T00:48:59;101382.03;;;4.00;100.00
60099;BME280;62818;49.394;8.686;2023-01-31T00:50:01;101381.09;;;3.88;100.00
60099;BME280;62818;49.394;8.686;2023-01-31T00:51:03;101381.03;;;3.77;100.00
60099;BME280;62818;49.394;8.686;2023-01-31T00:52:04;101382.50;;;3.81;100.00
60099;BME280;62818;49.394;8.686;2023-01-31T00:53:04;101377.75;;;3.86;100.00
60099;BME280;62818;49.394;8.686;2023-01-31T00:54:05;101381.03;;;3.77;100.00
60099;BME280;62818;49.394;8.686;2023-01-31T00:55:06;101374.13;;;3.76;100.00
60099;BME280;62818;49.394;8.686;2023-01-31T00:56:12;101370.31;;;3.80;100.00
60099;BME280;62818;49.394;8.686;2023-01-31T00:57:14;101380.09;;;3.78;100.00
60099;BME280;62818;49.394;8.686;2023-01-31T00:58:14;101366.44;;;3.73;100.00
60099;BME280;62818;49.394;8.686;2023-01-31T00:59:15;101373.47;;;3.85;100.00
60099;BME280;62818;49.394;8.686;2023-01-31T01:00:16;101367.13;;;4.00;100.00
60099;BME280;62818;49.394;8.686;2023-01-31T01:01:25;101363.25;;;3.93;100.00
60099;BME280;62818;49.394;8.686;2023-01-31T01:02:27;101367.06;;;3.89;100.00
60099;BME280;62818;49.394;8.686;2023-01-31T01:03:28;101363.06;;;3.84;100.00
60099;BME280;62818;49.394;8.686;2023-01-31T01:04:28;101368.34;;;3.71;100.00
60099;BME280;62818;49.394;8.686;2023-01-31T01:05:29;101369.47;;;3.80;100.00
60099;BME280;62818;49.394;8.686;2023-01-31T01:06:29;101366.78;;;3.81;100.00
60099;BME280;62818;49.394;8.686;2023-01-31T01:07:30;101372.03;;;3.81;100.00
60099;BME280;62818;49.394;8.686;2023-01-31T01:08:31;101357.28;;;3.91;100.00
60099;BME280;62818;49.394;8.686;2023-01-31T01:09:32;101373.47;;;3.72;100.00
60099;BME280;62818;49.394;8.686;2023-01-31T01:10:33;101368.78;;;3.65;100.00
60099;BME280;62818;49.394;8.686;2023-01-31T01:11:34;101359.63;;;3.70;100.00
60099;BME280;62818;49.394;8.686;2023-01-31T01:12:35;101365.53;;;3.74;100.00
60099;BME280;62818;49.394;8.686;2023-01-31T01:13:36;101370.22;;;3.82;100.00
60099;BME280;62818;49.394;8.686;2023-01-31T01:14:37;101361.09;;;3.87;100.00
60099;BME280;62818;49.394;8.686;2023-01-31T01:15:37;101366.97;;;3.78;100.00
60099;BME280;62818;49.394;8.686;2023-01-31T01:16:38;101367.50;;;3.83;100.00
60099;BME280;62818;49.394;8.686;2023-01-31T01:17:39;101365.59;;;3.85;100.00
60099;BME280;62818;49.394;8.686;2023-01-31T01:18:40;101365.69;;;3.96;100.00
60099;BME280;62818;49.394;8.686;2023-01-31T01:19:41;101366.41;;;3.98;100.00
60099;BME280;62818;49.394;8.686;2023-01-31T01:20:42;101372.59;;;3.97;100.00
60099;BME280;62818;49.394;8.686;2023-01-31T01:21:42;101371.78;;;3.84;100.00
60099;BME280;62818;49.394;8.686;2023-01-31T01:22:43;101375.78;;;3.77;100.00
60099;BME280;62818;49.394;8.686;2023-01-31T01:23:44;101367.50;;;3.83;100.00
60099;BME280;62818;49.394;8.686;2023-01-31T01:24:48;101376.81;;;3.87;100.00
60099;BME280;62818;49.394;8.686;2023-01-31T01:25:48;101381.03;;;3.77;100.00
60099;BME280;62818;49.394;8.686;2023-01-31T01:26:49;101382.38;;;3.83;100.00
60099;BME280;62818;49.394;8.686;2023-01-31T01:27:49;101382.91;;;3.88;100.00
60099;BME280;62818;49.394;8.686;2023-01-31T01:28:50;101384.56;;;3.89;100.00
60099;BME280;62818;49.394;8.686;2023-01-31T01:29:52;101381.53;;;3.82;100.00
60099;BME280;62818;49.394;8.686;2023-01-31T01:30:53;101377.00;;;3.97;100.00
60099;BME280;62818;49.394;8.686;2023-01-31T01:31:53;101385.94;;;3.94;100.00
60099;BME280;62818;49.394;8.686;2023-01-31T01:32:54;101385.78;;;4.08;100.00
60099;BME280;62818;49.394;8.686;2023-01-31T01:34:04;101391.28;;;3.93;100.00
60099;BME280;62818;49.394;8.686;2023-01-31T01:35:07;101381.03;;;3.77;100.00
60099;BME280;62818;49.394;8.686;2023-01-31T01:36:11;101374.16;;;4.00;100.00
60099;BME280;62818;49.394;8.686;2023-01-31T01:37:16;101377.31;;;3.92;100.00
60099;BME280;62818;49.394;8.686;2023-01-31T01:38:19;101374.97;;;3.77;100.00
60099;BME280;62818;49.394;8.686;2023-01-31T01:39:20;101385.03;;;3.70;100.00
60099;BME280;62818;49.394;8.686;2023-01-31T01:40:21;101377.16;;;3.83;100.00
60099;BME280;62818;49.394;8.686;2023-01-31T01:41:22;101384.59;;;3.76;100.00
60099;BME280;62818;49.394;8.686;2023-01-31T01:42:24;101382.91;;;3.75;100.00
60099;BME280;62818;49.394;8.686;2023-01-31T01:43:45;101383.72;;;3.88;100.00
60099;BME280;62818;49.394;8.686;2023-01-31T01:44:52;101381.59;;;4.06;100.00
60099;BME280;62818;49.394;8.686;2023-01-31T01:45:52;101387.88;;;4.16;100.00
60099;BME280;62818;49.394;8.686;2023-01-31T01:46:53;101381.06;;;4.13;100.00
60099;BME280;62818;49.394;8.686;2023-01-31T01:47:58;101383.63;;;4.26;100.00
60099;BME280;62818;49.394;8.686;2023-01-31T01:49:27;101389.69;;;4.03;100.00
60099;BME280;62818;49.394;8.686;2023-01-31T01:50:39;101394.41;;;3.98;100.00
60099;BME280;62818;49.394;8.686;2023-01-31T01:51:45;101390.44;;;3.92;100.00
60099;BME280;62818;49.394;8.686;2023-01-31T01:53:07;101398.81;;;3.97;100.00
60099;BME280;62818;49.394;8.686;2023-01-31T01:54:21;101392.75;;;3.84;100.00
60099;BME280;62818;49.394;8.686;2023-01-31T01:55:46;101405.16;;;3.69;100.00
60099;BME280;62818;49.394;8.686;2023-01-31T01:56:54;101397.00;;;3.74;100.00
60099;BME280;62818;49.394;8.686;2023-01-31T01:58:03;101397.41;;;3.81;100.00
60099;BME280;62818;49.394;8.686;2023-01-31T01:59:13;101398.72;;;3.86;100.00
60099;BME280;62818;49.394;8.686;2023-01-31T02:00:24;101398.44;;;3.78;100.00
60099;BME280;62818;49.394;8.686;2023-01-31T02:01:30;101395.91;;;3.89;100.00
60099;BME280;62818;49.394;8.686;2023-01-31T02:02:34;101404.81;;;3.87;100.00
60099;BME280;62818;49.394;8.686;2023-01-31T02:03:36;101401.00;;;4.03;100.00
60099;BME280;62818;49.394;8.686;2023-01-31T02:04:39;101400.38;;;4.00;100.00
60099;BME280;62818;49.394;8.686;2023-01-31T02:05:51;101400.03;;;4.17;100.00
60099;BME280;62818;49.394;8.686;2023-01-31T02:06:54;101397.72;;;3.76;100.00
60099;BME280;62818;49.394;8.686;2023-01-31T02:07:55;101402.22;;;3.74;100.00
60099;BME280;62818;49.394;8.686;2023-01-31T02:08:58;101411.66;;;3.89;100.00
60099;BME280;62818;49.394;8.686;2023-01-31T02:10:25;101397.56;;;4.03;100.00
60099;BME280;62818;49.394;8.686;2023-01-31T02:11:41;101408.06;;;3.90;100.00
60099;BME280;62818;49.394;8.686;2023-01-31T02:12:42;101398.09;;;3.95;100.00
60099;BME280;62818;49.394;8.686;2023-01-31T02:13:45;101402.38;;;4.09;100.00
60099;BME280;62818;49.394;8.686;2023-01-31T02:14:47;101408.69;;;3.94;100.00
60099;BME280;62818;49.394;8.686;2023-01-31T02:15:48;101408.91;;;3.91;100.00
60099;BME280;62818;49.394;8.686;2023-01-31T02:16:49;101403.75;;;4.02;100.00
60099;BME280;62818;49.394;8.686;2023-01-31T02:17:49;101404.47;;;4.04;100.00
60099;BME280;62818;49.394;8.686;2023-01-31T02:18:50;101398.56;;;4.13;100.00
60099;BME280;62818;49.394;8.686;2023-01-31T02:20:21;101396.97;;;3.87;100.00
60099;BME280;62818;49.394;8.686;2023-01-31T02:25:04;101408.44;;;3.60;100.00
60099;BME280;62818;49.394;8.686;2023-01-31T02:28:29;101410.63;;;3.54;100.00
60099;BME280;62818;49.394;8.686;2023-01-31T02:30:03;101407.56;;;3.72;100.00
60099;BME280;62818;49.394;8.686;2023-01-31T02:34:42;101411.66;;;3.64;100.00
60099;BME280;62818;49.394;8.686;2023-01-31T02:37:56;101395.31;;;3.60;100.00
60099;BME280;62818;49.394;8.686;2023-01-31T02:42:33;101398.47;;;3.53;100.00
60099;BME280;62818;49.394;8.686;2023-01-31T02:43:56;101390.50;;;3.54;100.00
60099;BME280;62818;49.394;8.686;2023-01-31T02:48:57;101397.09;;;3.60;100.00
60099;BME280;62818;49.394;8.686;2023-01-31T02:51:18;101394.56;;;3.71;100.00
60099;BME280;62818;49.394;8.686;2023-01-31T02:52:44;101392.47;;;3.76;100.00
60099;BME280;62818;49.394;8.686;2023-01-31T02:53:55;101394.28;;;3.63;100.00
60099;BME280;62818;49.394;8.686;2023-01-31T02:55:25;101401.38;;;3.48;100.00
60099;BME280;62818;49.394;8.686;2023-01-31T02:56:50;101396.47;;;3.44;100.00
60099;BME280;62818;49.394;8.686;2023-01-31T02:57:54;101396.16;;;3.36;100.00
60099;BME280;62818;49.394;8.686;2023-01-31T02:59:30;101392.59;;;3.49;100.00
60099;BME280;62818;49.394;8.686;2023-01-31T03:00:33;101391.13;;;3.45;100.00
60099;BME280;62818;49.394;8.686;2023-01-31T03:01:45;101382.13;;;3.49;100.00
60099;BME280;62818;49.394;8.686;2023-01-31T03:02:50;101390.59;;;3.53;100.00
60099;BME280;62818;49.394;8.686;2023-01-31T03:03:51;101391.53;;;3.64;100.00
60099;BME280;62818;49.394;8.686;2023-01-31T03:04:52;101378.72;;;3.72;100.00
60099;BME280;62818;49.394;8.686;2023-01-31T03:07:23;101381.38;;;3.47;100.00
60099;BME280;62818;49.394;8.686;2023-01-31T03:08:29;101386.75;;;3.46;100.00
60099;BME280;62818;49.394;8.686;2023-01-31T03:09:39;101385.88;;;3.58;100.00
60099;BME280;62818;49.394;8.686;2023-01-31T03:10:59;101385.25;;;3.42;100.00
60099;BME280;62818;49.394;8.686;2023-01-31T03:12:15;101384.50;;;3.65;100.00
60099;BME280;62818;49.394;8.686;2023-01-31T03:14:14;101382.09;;;3.62;100.00
60099;BME280;62818;49.394;8.686;2023-01-31T03:15:39;101378.44;;;3.64;100.00
60099;BME280;62818;49.394;8.686;2023-01-31T03:18:58;101395.97;;;3.39;100.00
60099;BME280;62818;49.394;8.686;2023-01-31T03:20:23;101392.38;;;3.27;100.00
60099;BME280;62818;49.394;8.686;2023-01-31T03:21:38;101395.22;;;3.37;100.00
60099;BME280;62818;49.394;8.686;2023-01-31T03:23:16;101396.47;;;3.44;100.00
60099;BME280;62818;49.394;8.686;2023-01-31T03:24:22;101384.63;;;3.51;100.00
60099;BME280;62818;49.394;8.686;2023-01-31T03:25:28;101389.78;;;3.52;100.00
60099;BME280;62818;49.394;8.686;2023-01-31T03:26:32;101386.31;;;3.52;100.00
60099;BME280;62818;49.394;8.686;2023-01-31T03:27:35;101393.44;;;3.37;100.00
60099;BME280;62818;49.394;8.686;2023-01-31T03:28:40;101396.56;;;3.42;100.00
60099;BME280;62818;49.394;8.686;2023-01-31T03:29:43;101392.59;;;3.37;100.00
60099;BME280;62818;49.394;8.686;2023-01-31T03:31:18;101396.28;;;3.34;100.00
60099;BME280;62818;49.394;8.686;2023-01-31T03:32:27;101396.78;;;3.27;100.00
60099;BME280;62818;49.394;8.686;2023-01-31T03:33:35;101402.66;;;3.30;100.00
60099;BME280;62818;49.394;8.686;2023-01-31T03:34:39;101402.97;;;3.51;100.00
60099;BME280;62818;49.394;8.686;2023-01-31T03:35:41;101405.81;;;3.48;100.00
60099;BME280;62818;49.394;8.686;2023-01-31T03:36:51;101408.75;;;3.56;100.00
60099;BME280;62818;49.394;8.686;2023-01-31T03:38:03;101405.47;;;3.40;100.00
60099;BME280;62818;49.394;8.686;2023-01-31T03:40:53;101404.34;;;3.56;100.00
60099;BME280;62818;49.394;8.686;2023-01-31T03:41:59;101412.09;;;3.58;100.00
60099;BME280;62818;49.394;8.686;2023-01-31T03:44:55;101417.34;;;3.58;100.00
60099;BME280;62818;49.394;8.686;2023-01-31T03:46:24;101424.06;;;3.37;100.00
60099;BME280;62818;49.394;8.686;2023-01-31T03:47:35;101418.34;;;3.18;100.00
60099;BME280;62818;49.394;8.686;2023-01-31T03:48:42;101422.53;;;3.08;100.00
60099;BME280;62818;49.394;8.686;2023-01-31T03:49:48;101416.03;;;3.13;100.00
60099;BME280;62818;49.394;8.686;2023-01-31T03:50:56;101414.38;;;3.25;100.00
60099;BME280;62818;49.394;8.686;2023-01-31T03:52:05;101420.16;;;3.30;100.00
60099;BME280;62818;49.394;8.686;2023-01-31T03:53:38;101426.13;;;3.19;100.00
60099;BME280;62818;49.394;8.686;2023-01-31T03:54:46;101423.50;;;3.19;100.00
60099;BME280;62818;49.394;8.686;2023-01-31T03:57:30;101417.13;;;3.11;100.00
60099;BME280;62818;49.394;8.686;2023-01-31T03:58:39;101419.72;;;3.11;100.00
60099;BME280;62818;49.394;8.686;2023-01-31T03:59:45;101424.63;;;3.03;100.00
60099;BME280;62818;49.394;8.686;2023-01-31T04:00:54;101423.88;;;2.88;100.00
60099;BME280;62818;49.394;8.686;2023-01-31T04:02:00;101422.84;;;2.90;100.00
60099;BME280;62818;49.394;8.686;2023-01-31T04:03:17;101430.25;;;2.84;100.00
60099;BME280;62818;49.394;8.686;2023-01-31T04:04:28;101434.22;;;2.89;100.00
60099;BME280;62818;49.394;8.686;2023-01-31T04:05:36;101434.09;;;2.78;100.00
60099;BME280;62818;49.394;8.686;2023-01-31T04:06:37;101434.69;;;2.69;100.00
60099;BME280;62818;49.394;8.686;2023-01-31T04:07:39;101435.97;;;2.76;100.00
60099;BME280;62818;49.394;8.686;2023-01-31T04:08:40;101436.94;;;2.75;100.00
60099;BME280;62818;49.394;8.686;2023-01-31T04:09:41;101433.94;;;2.67;100.00
60099;BME280;62818;49.394;8.686;2023-01-31T04:10:42;101433.34;;;2.76;100.00
60099;BME280;62818;49.394;8.686;2023-01-31T04:11:47;101432.50;;;2.76;100.00
60099;BME280;62818;49.394;8.686;2023-01-31T04:12:48;101432.56;;;2.88;100.00
60099;BME280;62818;49.394;8.686;2023-01-31T04:13:49;101430.69;;;2.90;100.00
60099;BME280;62818;49.394;8.686;2023-01-31T04:14:49;101427.72;;;2.82;100.00
60099;BME280;62818;49.394;8.686;2023-01-31T04:15:50;101425.91;;;2.70;100.00
60099;BME280;62818;49.394;8.686;2023-01-31T04:16:50;101425.38;;;2.65;100.00
60099;BME280;62818;49.394;8.686;2023-01-31T04:17:51;101427.38;;;2.74;100.00
60099;BME280;62818;49.394;8.686;2023-01-31T04:18:51;101427.69;;;2.70;100.00
60099;BME280;62818;49.394;8.686;2023-01-31T04:19:52;101418.66;;;2.61;100.00
60099;BME280;62818;49.394;8.686;2023-01-31T04:20:52;101420.59;;;2.84;100.00
60099;BME280;62818;49.394;8.686;2023-01-31T04:21:53;101430.94;;;2.73;100.00
60099;BME280;62818;49.394;8.686;2023-01-31T04:22:53;101429.06;;;2.75;100.00
60099;BME280;62818;49.394;8.686;2023-01-31T04:23:54;101440.50;;;2.60;100.00
60099;BME280;62818;49.394;8.686;2023-01-31T04:24:54;101426.94;;;2.41;100.00
60099;BME280;62818;49.394;8.686;2023-01-31T04:25:55;101431.03;;;2.45;100.00
60099;BME280;62818;49.394;8.686;2023-01-31T04:26:55;101423.00;;;2.48;100.00
60099;BME280;62818;49.394;8.686;2023-01-31T04:27:56;101426.94;;;2.41;100.00
60099;BME280;62818;49.394;8.686;2023-01-31T04:28:56;101430.03;;;2.34;100.00
60099;BME280;62818;49.394;8.686;2023-01-31T04:29:57;101426.50;;;2.61;100.00
60099;BME280;62818;49.394;8.686;2023-01-31T04:30:57;101431.75;;;2.61;100.00
60099;BME280;62818;49.394;8.686;2023-01-31T04:31:57;101433.34;;;2.76;100.00
60099;BME280;62818;49.394;8.686;2023-01-31T04:32:58;101438.19;;;2.82;100.00
60099;BME280;62818;49.394;8.686;2023-01-31T04:33:58;101432.94;;;2.82;100.00
60099;BME280;62818;49.394;8.686;2023-01-31T04:34:59;101435.69;;;2.93;100.00
60099;BME280;62818;49.394;8.686;2023-01-31T04:35:59;101433.81;;;2.95;100.00
60099;BME280;62818;49.394;8.686;2023-01-31T04:37:00;101433.16;;;2.79;100.00
60099;BME280;62818;49.394;8.686;2023-01-31T04:38:00;101428.81;;;2.66;100.00
60099;BME280;62818;49.394;8.686;2023-01-31T04:39:02;101426.53;;;2.47;100.00
60099;BME280;62818;49.394;8.686;2023-01-31T04:40:03;101430.78;;;2.62;100.00
60099;BME280;62818;49.394;8.686;2023-01-31T04:41:05;101436.13;;;2.87;100.00
60099;BME280;62818;49.394;8.686;2023-01-31T04:42:05;101436.53;;;2.55;100.00
60099;BME280;62818;49.394;8.686;2023-01-31T04:43:06;101431.41;;;2.53;100.00
60099;BME280;62818;49.394;8.686;2023-01-31T04:44:06;101435.88;;;2.51;100.00
60099;BME280;62818;49.394;8.686;2023-01-31T04:45:07;101436.22;;;2.59;100.00
60099;BME280;62818;49.394;8.686;2023-01-31T04:46:08;101434.34;;;2.61;100.00
60099;BME280;62818;49.394;8.686;2023-01-31T04:47:08;101437.09;;;2.60;100.00
60099;BME280;62818;49.394;8.686;2023-01-31T04:48:09;101430.47;;;2.40;100.00
60099;BME280;62818;49.394;8.686;2023-01-31T04:49:09;101432.03;;;2.57;100.00
60099;BME280;62818;49.394;8.686;2023-01-31T04:50:10;101428.94;;;2.38;100.00
60099;BME280;62818;49.394;8.686;2023-01-31T04:51:10;101428.81;;;2.39;100.00
60099;BME280;62818;49.394;8.686;2023-01-31T04:52:11;101427.34;;;2.35;100.00
60099;BME280;62818;49.394;8.686;2023-01-31T04:53:12;101419.44;;;2.49;100.00
60099;BME280;62818;49.394;8.686;2023-01-31T04:54:12;101418.34;;;2.39;100.00
60099;BME280;62818;49.394;8.686;2023-01-31T04:55:13;101421.72;;;2.41;100.00
60099;BME280;62818;49.394;8.686;2023-01-31T04:56:13;101420.78;;;2.42;100.00
60099;BME280;62818;49.394;8.686;2023-01-31T04:57:14;101426.16;;;2.53;100.00
60099;BME280;62818;49.394;8.686;2023-01-31T04:58:14;101422.75;;;2.65;100.00
60099;BME280;62818;49.394;8.686;2023-01-31T04:59:15;101430.41;;;2.42;100.00
60099;BME280;62818;49.394;8.686;2023-01-31T05:00:16;101425.84;;;2.31;100.00
60099;BME280;62818;49.394;8.686;2023-01-31T05:01:17;101423.41;;;2.42;100.00
60099;BME280;62818;49.394;8.686;2023-01-31T05:02:17;101418.53;;;2.36;100.00
60099;BME280;62818;49.394;8.686;2023-01-31T05:03:18;101418.75;;;2.33;100.00
60099;BME280;62818;49.394;8.686;2023-01-31T05:04:18;101408.88;;;2.24;100.00
60099;BME280;62818;49.394;8.686;2023-01-31T05:05:21;101410.94;;;2.19;100.00
60099;BME280;62818;49.394;8.686;2023-01-31T05:06:21;101407.75;;;2.55;100.00
60099;BME280;62818;49.394;8.686;2023-01-31T05:07:22;101420.25;;;2.76;100.00
60099;BME280;62818;49.394;8.686;2023-01-31T05:08:23;101417.66;;;2.76;100.00
60099;BME280;62818;49.394;8.686;2023-01-31T05:09:23;101414.25;;;2.35;100.00
60099;BME280;62818;49.394;8.686;2023-01-31T05:10:24;101411.66;;;2.35;100.00
60099;BME280;62818;49.394;8.686;2023-01-31T05:11:24;101412.97;;;2.28;100.00
60099;BME280;62818;49.394;8.686;2023-01-31T05:12:25;101412.63;;;2.20;100.00
60099;BME280;62818;49.394;8.686;2023-01-31T05:13:27;101413.72;;;2.16;100.00
60099;BME280;62818;49.394;8.686;2023-01-31T05:14:31;101417.19;;;2.16;100.00
60099;BME280;62818;49.394;8.686;2023-01-31T05:15:31;101416.16;;;2.19;100.00
60099;BME280;62818;49.394;8.686;2023-01-31T05:16:32;101413.09;;;2.12;100.00
60099;BME280;62818;49.394;8.686;2023-01-31T05:17:33;101413.81;;;2.14;100.00
60099;BME280;62818;49.394;8.686;2023-01-31T05:18:34;101412.47;;;2.09;100.00
60099;BME280;62818;49.394;8.686;2023-01-31T05:19:34;101413.69;;;2.30;100.00
60099;BME280;62818;49.394;8.686;2023-01-31T05:20:36;101408.41;;;2.17;100.00
60099;BME280;62818;49.394;8.686;2023-01-31T05:21:40;101413.19;;;2.11;100.00
60099;BME280;62818;49.394;8.686;2023-01-31T05:22:58;101413.69;;;2.30;100.00
60099;BME280;62818;49.394;8.686;2023-01-31T05:23:59;101420.22;;;2.37;100.00
60099;BME280;62818;49.394;8.686;2023-01-31T05:24:59;101426.44;;;2.22;100.00
60099;BME280;62818;49.394;8.686;2023-01-31T05:26:00;101423.84;;;2.08;100.00
60099;BME280;62818;49.394;8.686;2023-01-31T05:27:00;101419.00;;;2.02;100.00
60099;BME280;62818;49.394;8.686;2023-01-31T05:28:02;101417.88;;;2.06;100.00
60099;BME280;62818;49.394;8.686;2023-01-31T05:29:03;101409.72;;;2.10;100.00
60099;BME280;62818;49.394;8.686;2023-01-31T05:30:07;101413.38;;;2.08;100.00
60099;BME280;62818;49.394;8.686;2023-01-31T05:31:08;101412.22;;;2.26;100.00
60099;BME280;62818;49.394;8.686;2023-01-31T05:32:09;101411.81;;;2.32;100.00
60099;BME280;62818;49.394;8.686;2023-01-31T05:33:10;101419.28;;;2.38;100.00
60099;BME280;62818;49.394;8.686;2023-01-31T05:34:10;101411.66;;;2.35;100.00
60099;BME280;62818;49.394;8.686;2023-01-31T05:35:14;101398.97;;;2.29;100.00
60099;BME280;62818;49.394;8.686;2023-01-31T05:36:15;101400.28;;;2.22;100.00
60099;BME280;62818;49.394;8.686;2023-01-31T05:37:16;101403.59;;;2.11;100.00
60099;BME280;62818;49.394;8.686;2023-01-31T05:38:16;101401.56;;;2.29;100.00
60099;BME280;62818;49.394;8.686;2023-01-31T05:39:17;101408.97;;;2.49;100.00
60099;BME280;62818;49.394;8.686;2023-01-31T05:40:18;101412.53;;;2.48;100.00
60099;BME280;62818;49.394;8.686;2023-01-31T05:41:18;101406.41;;;2.35;100.00
60099;BME280;62818;49.394;8.686;2023-01-31T05:42:19;101401.56;;;2.29;100.00
60099;BME280;62818;49.394;8.686;2023-01-31T05:43:19;101403.63;;;2.24;100.00
60099;BME280;62818;49.394;8.686;2023-01-31T05:44:20;101408.28;;;2.33;100.00
60099;BME280;62818;49.394;8.686;2023-01-31T05:45:21;101411.47;;;2.24;100.00
60099;BME280;62818;49.394;8.686;2023-01-31T05:46:21;101406.69;;;2.31;100.00
60099;BME280;62818;49.394;8.686;2023-01-31T05:47:22;101412.56;;;2.34;100.00
60099;BME280;62818;49.394;8.686;2023-01-31T05:48:23;101408.41;;;2.17;100.00
60099;BME280;62818;49.394;8.686;2023-01-31T05:49:24;101409.16;;;2.19;100.00
60099;BME280;62818;49.394;8.686;2023-01-31T05:50:24;101424.09;;;2.17;100.00
60099;BME280;62818;49.394;8.686;2023-01-31T05:51:25;101424.75;;;2.21;100.00
60099;BME280;62818;49.394;8.686;2023-01-31T05:52:26;101425.78;;;2.18;100.00
60099;BME280;62818;49.394;8.686;2023-01-31T05:53:26;101424.34;;;2.27;100.00
60099;BME280;62818;49.394;8.686;2023-01-31T05:54:27;101423.53;;;2.27;100.00
60099;BME280;62818;49.394;8.686;2023-01-31T05:55:28;101418.75;;;2.33;100.00
60099;BME280;62818;49.394;8.686;2023-01-31T05:56:29;101422.50;;;2.29;100.00
60099;BME280;62818;49.394;8.686;2023-01-31T05:57:30;101428.31;;;2.20;100.00
60099;BME280;62818;49.394;8.686;2023-01-31T05:58:30;101418.00;;;2.31;100.00
60099;BME280;62818;49.394;8.686;2023-01-31T05:59:31;101418.03;;;2.17;100.00
60099;BME280;62818;49.394;8.686;2023-01-31T06:00:32;101428.31;;;2.06;100.00
60099;BME280;62818;49.394;8.686;2023-01-31T06:01:33;101420.47;;;2.20;100.00
60099;BME280;62818;49.394;8.686;2023-01-31T06:02:33;101422.47;;;2.02;100.00
60099;BME280;62818;49.394;8.686;2023-01-31T06:03:34;101420.88;;;2.00;100.00
60099;BME280;62818;49.394;8.686;2023-01-31T06:04:34;101420.88;;;2.00;100.00
60099;BME280;62818;49.394;8.686;2023-01-31T06:05:35;101414.94;;;2.24;100.00
60099;BME280;62818;49.394;8.686;2023-01-31T06:06:35;101421.97;;;2.10;100.00